sensor_id;sensor_type;location;lat;lon;timestamp;noise_LAeq;noise_LA_min;noise_LA_max;noise_LA01;noise_LA95
74496;Laerm;62979;55.720;37.606;2023-06-04T00:02:05;47.56;43.54;52.77;;
74496;Laerm;62979;55.720;37.606;2023-06-04T00:04:32;49.78;43.88;57.87;;
74496;Laerm;62979;55.720;37.606;2023-06-04T00:06:59;49.64;43.81;60.99;;
74496;Laerm;62979;55.720;37.606;2023-06-04T00:09:26;50.53;44.51;62.30;;
74496;Laerm;62979;55.720;37.606;2023-06-04T00:11:54;50.01;43.66;58.95;;
74496;Laerm;62979;55.720;37.606;2023-06-04T00:14:21;47.54;43.68;52.04;;
74496;Laerm;62979;55.720;37.606;2023-06-04T00:16:48;47.94;43.76;57.86;;
74496;Laerm;62979;55.720;37.606;2023-06-04T00:19:15;48.59;44.46;64.92;;
74496;Laerm;62979;55.720;37.606;2023-06-04T00:21:42;49.42;44.00;57.85;;
74496;Laerm;62979;55.720;37.606;2023-06-04T00:24:09;50.36;43.32;64.37;;
74496;Laerm;62979;55.720;37.606;2023-06-04T00:26:37;51.17;43.75;62.81;;
74496;Laerm;62979;55.720;37.606;2023-06-04T00:29:06;49.86;43.48;58.53;;
74496;Laerm;62979;55.720;37.606;2023-06-04T00:31:33;48.87;43.67;63.61;;
74496;Laerm;62979;55.720;37.606;2023-06-04T00:34:01;51.87;44.78;64.21;;
74496;Laerm;62979;55.720;37.606;2023-06-04T00:36:28;49.06;44.05;57.70;;
74496;Laerm;62979;55.720;37.606;2023-06-04T00:38:55;51.45;44.61;65.32;;
74496;Laerm;62979;55.720;37.606;2023-06-04T00:41:22;48.64;43.82;53.05;;
74496;Laerm;62979;55.720;37.606;2023-06-04T00:43:49;49.45;44.48;59.83;;
74496;Laerm;62979;55.720;37.606;2023-06-04T00:46:23;50.93;44.44;59.34;;
74496;Laerm;62979;55.720;37.606;2023-06-04T00:48:52;50.66;45.10;59.97;;
74496;Laerm;62979;55.720;37.606;2023-06-04T00:51:20;49.80;43.50;59.19;;
74496;Laerm;62979;55.720;37.606;2023-06-04T00:53:49;51.24;43.22;68.79;;
74496;Laerm;62979;55.720;37.606;2023-06-04T00:56:16;48.08;43.59;59.18;;
74496;Laerm;62979;55.720;37.606;2023-06-04T00:58:45;49.71;44.54;67.20;;
74496;Laerm;62979;55.720;37.606;2023-06-04T01:01:23;48.70;44.04;59.71;;
74496;Laerm;62979;55.720;37.606;2023-06-04T01:03:55;49.07;43.81;58.44;;
74496;Laerm;62979;55.720;37.606;2023-06-04T01:06:33;49.92;43.47;63.16;;
74496;Laerm;62979;55.720;37.606;2023-06-04T01:09:05;50.07;43.91;64.66;;
74496;Laerm;62979;55.720;37.606;2023-06-04T01:11:34;50.66;45.67;59.20;;
74496;Laerm;62979;55.720;37.606;2023-06-04T01:14:02;50.36;44.14;61.62;;
74496;Laerm;62979;55.720;37.606;2023-06-04T01:16:36;49.22;44.37;57.10;;
74496;Laerm;62979;55.720;37.606;2023-06-04T01:19:26;47.51;43.30;55.94;;
74496;Laerm;62979;55.720;37.606;2023-06-04T01:22:04;49.59;43.26;59.81;;
74496;Laerm;62979;55.720;37.606;2023-06-04T01:24:41;49.70;43.52;59.19;;
74496;Laerm;62979;55.720;37.606;2023-06-04T01:27:12;47.01;43.65;52.92;;
74496;Laerm;62979;55.720;37.606;2023-06-04T01:29:41;49.94;43.54;59.04;;
74496;Laerm;62979;55.720;37.606;2023-06-04T01:32:10;48.84;43.73;62.20;;
74496;Laerm;62979;55.720;37.606;2023-06-04T01:34:45;49.20;44.30;63.50;;
74496;Laerm;62979;55.720;37.606;2023-06-04T01:37:13;49.98;43.45;66.35;;
74496;Laerm;62979;55.720;37.606;2023-06-04T01:39:42;49.29;43.74;63.15;;
74496;Laerm;62979;55.720;37.606;2023-06-04T01:42:09;50.82;44.38;72.77;;
74496;Laerm;62979;55.720;37.606;2023-06-04T01:44:37;47.64;42.38;62.32;;
74496;Laerm;62979;55.720;37.606;2023-06-04T01:47:04;47.38;43.64;64.48;;
74496;Laerm;62979;55.720;37.606;2023-06-04T01:49:31;46.90;42.54;57.10;;
74496;Laerm;62979;55.720;37.606;2023-06-04T01:51:59;47.70;42.66;65.03;;
74496;Laerm;62979;55.720;37.606;2023-06-04T01:54:26;47.16;43.74;63.82;;
74496;Laerm;62979;55.720;37.606;2023-06-04T01:56:55;48.01;42.64;64.16;;
74496;Laerm;62979;55.720;37.606;2023-06-04T01:59:22;48.60;43.79;60.01;;
74496;Laerm;62979;55.720;37.606;2023-06-04T02:01:49;47.09;42.49;61.23;;
74496;Laerm;62979;55.720;37.606;2023-06-04T02:04:15;47.65;42.10;56.64;;
74496;Laerm;62979;55.720;37.606;2023-06-04T02:06:42;50.18;43.96;75.48;;
74496;Laerm;62979;55.720;37.606;2023-06-04T02:09:11;47.39;43.34;57.86;;
74496;Laerm;62979;55.720;37.606;2023-06-04T02:11:37;46.24;42.42;54.43;;
74496;Laerm;62979;55.720;37.606;2023-06-04T02:14:04;47.08;42.00;62.98;;
74496;Laerm;62979;55.720;37.606;2023-06-04T02:16:31;47.49;42.17;53.04;;
74496;Laerm;62979;55.720;37.606;2023-06-04T02:18:58;48.52;43.79;69.24;;
74496;Laerm;62979;55.720;37.606;2023-06-04T02:21:26;47.89;43.29;57.76;;
74496;Laerm;62979;55.720;37.606;2023-06-04T02:23:53;47.67;43.28;61.87;;
74496;Laerm;62979;55.720;37.606;2023-06-04T02:26:21;45.85;42.36;52.07;;
74496;Laerm;62979;55.720;37.606;2023-06-04T02:28:49;47.64;42.13;61.35;;
74496;Laerm;62979;55.720;37.606;2023-06-04T02:31:15;48.59;43.89;60.43;;
74496;Laerm;62979;55.720;37.606;2023-06-04T02:33:42;49.38;42.63;61.79;;
74496;Laerm;62979;55.720;37.606;2023-06-04T02:36:10;49.38;42.38;60.98;;
74496;Laerm;62979;55.720;37.606;2023-06-04T02:38:37;48.17;42.61;60.70;;
74496;Laerm;62979;55.720;37.606;2023-06-04T02:41:04;48.53;42.92;61.70;;
74496;Laerm;62979;55.720;37.606;2023-06-04T02:43:32;50.15;44.41;61.09;;
74496;Laerm;62979;55.720;37.606;2023-06-04T02:45:59;48.92;43.03;70.70;;
74496;Laerm;62979;55.720;37.606;2023-06-04T02:48:25;51.71;43.40;71.92;;
74496;Laerm;62979;55.720;37.606;2023-06-04T02:50:53;50.11;42.95;62.77;;
74496;Laerm;62979;55.720;37.606;2023-06-04T02:53:21;48.53;41.81;66.93;;
74496;Laerm;62979;55.720;37.606;2023-06-04T02:55:49;47.76;42.22;63.11;;
74496;Laerm;62979;55.720;37.606;2023-06-04T02:58:17;46.71;41.37;58.25;;
74496;Laerm;62979;55.720;37.606;2023-06-04T03:00:45;47.15;42.45;63.38;;
74496;Laerm;62979;55.720;37.606;2023-06-04T03:03:12;47.16;42.46;57.59;;
74496;Laerm;62979;55.720;37.606;2023-06-04T03:05:39;50.74;41.58;62.40;;
74496;Laerm;62979;55.720;37.606;2023-06-04T03:08:08;50.95;44.46;66.97;;
74496;Laerm;62979;55.720;37.606;2023-06-04T03:10:36;52.64;45.04;67.06;;
74496;Laerm;62979;55.720;37.606;2023-06-04T03:13:03;52.64;43.85;66.70;;
74496;Laerm;62979;55.720;37.606;2023-06-04T03:15:30;50.72;44.69;73.43;;
74496;Laerm;62979;55.720;37.606;2023-06-04T03:17:58;50.55;44.68;65.46;;
74496;Laerm;62979;55.720;37.606;2023-06-04T03:20:26;60.85;47.85;78.84;;
74496;Laerm;62979;55.720;37.606;2023-06-04T03:22:52;58.02;43.50;71.68;;
74496;Laerm;62979;55.720;37.606;2023-06-04T03:25:19;47.48;43.50;59.27;;
74496;Laerm;62979;55.720;37.606;2023-06-04T03:27:46;50.55;43.74;62.09;;
74496;Laerm;62979;55.720;37.606;2023-06-04T03:30:13;51.64;43.69;66.15;;
74496;Laerm;62979;55.720;37.606;2023-06-04T03:32:40;57.60;44.09;72.38;;
74496;Laerm;62979;55.720;37.606;2023-06-04T03:35:10;54.03;44.43;64.00;;
74496;Laerm;62979;55.720;37.606;2023-06-04T03:37:37;49.83;43.41;66.33;;
74496;Laerm;62979;55.720;37.606;2023-06-04T03:40:06;50.44;44.14;62.90;;
74496;Laerm;62979;55.720;37.606;2023-06-04T03:42:33;58.85;44.79;68.45;;
74496;Laerm;62979;55.720;37.606;2023-06-04T03:45:00;50.89;45.26;67.68;;
74496;Laerm;62979;55.720;37.606;2023-06-04T03:47:27;51.93;44.00;67.07;;
74496;Laerm;62979;55.720;37.606;2023-06-04T03:49:54;48.39;43.01;59.24;;
74496;Laerm;62979;55.720;37.606;2023-06-04T03:52:23;53.60;45.47;64.84;;
74496;Laerm;62979;55.720;37.606;2023-06-04T03:54:49;52.00;43.65;70.58;;
74496;Laerm;62979;55.720;37.606;2023-06-04T03:57:16;50.91;43.81;68.93;;
74496;Laerm;62979;55.720;37.606;2023-06-04T03:59:43;54.26;44.57;67.64;;
74496;Laerm;62979;55.720;37.606;2023-06-04T04:02:10;52.63;44.12;69.03;;
74496;Laerm;62979;55.720;37.606;2023-06-04T04:04:37;48.52;43.38;67.09;;
74496;Laerm;62979;55.720;37.606;2023-06-04T04:07:04;52.04;44.36;70.82;;
74496;Laerm;62979;55.720;37.606;2023-06-04T04:09:32;50.16;42.81;63.53;;
74496;Laerm;62979;55.720;37.606;2023-06-04T04:11:59;49.44;41.02;65.84;;
74496;Laerm;62979;55.720;37.606;2023-06-04T04:14:26;47.88;43.75;65.31;;
74496;Laerm;62979;55.720;37.606;2023-06-04T04:16:53;51.87;42.80;67.19;;
74496;Laerm;62979;55.720;37.606;2023-06-04T04:19:20;47.08;43.22;60.04;;
74496;Laerm;62979;55.720;37.606;2023-06-04T04:21:47;50.82;44.09;68.21;;
74496;Laerm;62979;55.720;37.606;2023-06-04T04:24:22;56.09;48.40;72.41;;
74496;Laerm;62979;55.720;37.606;2023-06-04T04:26:52;58.79;49.25;73.69;;
74496;Laerm;62979;55.720;37.606;2023-06-04T04:29:19;59.28;44.11;69.90;;
74496;Laerm;62979;55.720;37.606;2023-06-04T04:31:48;48.94;42.96;60.77;;
74496;Laerm;62979;55.720;37.606;2023-06-04T04:34:15;53.84;43.40;64.24;;
74496;Laerm;62979;55.720;37.606;2023-06-04T04:36:42;57.19;46.18;71.69;;
74496;Laerm;62979;55.720;37.606;2023-06-04T04:39:10;53.05;44.83;69.68;;
74496;Laerm;62979;55.720;37.606;2023-06-04T04:41:37;48.02;45.13;54.32;;
74496;Laerm;62979;55.720;37.606;2023-06-04T04:44:06;47.54;42.96;58.11;;
74496;Laerm;62979;55.720;37.606;2023-06-04T04:46:32;49.57;44.65;66.58;;
74496;Laerm;62979;55.720;37.606;2023-06-04T04:48:59;49.78;43.38;60.76;;
74496;Laerm;62979;55.720;37.606;2023-06-04T04:51:26;48.72;44.04;61.11;;
74496;Laerm;62979;55.720;37.606;2023-06-04T04:53:53;54.40;44.37;63.73;;
74496;Laerm;62979;55.720;37.606;2023-06-04T04:56:21;64.67;49.40;74.20;;
74496;Laerm;62979;55.720;37.606;2023-06-04T04:58:49;62.39;47.24;72.91;;
74496;Laerm;62979;55.720;37.606;2023-06-04T05:01:19;49.15;44.03;57.16;;
74496;Laerm;62979;55.720;37.606;2023-06-04T05:03:45;52.21;43.40;64.91;;
74496;Laerm;62979;55.720;37.606;2023-06-04T05:06:12;51.04;42.51;61.66;;
74496;Laerm;62979;55.720;37.606;2023-06-04T05:08:39;50.07;44.48;56.99;;
74496;Laerm;62979;55.720;37.606;2023-06-04T05:11:07;50.87;44.53;62.04;;
74496;Laerm;62979;55.720;37.606;2023-06-04T05:13:34;50.00;44.77;59.95;;
74496;Laerm;62979;55.720;37.606;2023-06-04T05:16:01;54.66;46.10;68.50;;
74496;Laerm;62979;55.720;37.606;2023-06-04T05:18:33;51.24;44.99;61.18;;
74496;Laerm;62979;55.720;37.606;2023-06-04T05:21:00;53.44;45.73;69.02;;
74496;Laerm;62979;55.720;37.606;2023-06-04T05:23:28;53.66;47.15;63.88;;
74496;Laerm;62979;55.720;37.606;2023-06-04T05:25:55;52.02;43.83;62.84;;
74496;Laerm;62979;55.720;37.606;2023-06-04T05:28:22;51.02;44.37;61.34;;
74496;Laerm;62979;55.720;37.606;2023-06-04T05:30:50;51.30;43.58;62.48;;
74496;Laerm;62979;55.720;37.606;2023-06-04T05:33:17;53.81;45.38;65.48;;
74496;Laerm;62979;55.720;37.606;2023-06-04T05:35:46;56.28;47.20;63.71;;
74496;Laerm;62979;55.720;37.606;2023-06-04T05:38:13;51.78;45.59;63.18;;
74496;Laerm;62979;55.720;37.606;2023-06-04T05:40:42;53.37;44.57;71.39;;
74496;Laerm;62979;55.720;37.606;2023-06-04T05:43:09;53.91;45.91;68.45;;
74496;Laerm;62979;55.720;37.606;2023-06-04T05:45:36;53.81;45.20;65.33;;
74496;Laerm;62979;55.720;37.606;2023-06-04T05:48:04;59.74;48.50;69.38;;
74496;Laerm;62979;55.720;37.606;2023-06-04T05:50:32;54.33;46.42;65.63;;
74496;Laerm;62979;55.720;37.606;2023-06-04T05:53:00;52.40;44.61;67.01;;
74496;Laerm;62979;55.720;37.606;2023-06-04T05:55:27;53.53;46.45;61.38;;
74496;Laerm;62979;55.720;37.606;2023-06-04T05:57:55;54.24;46.67;65.24;;
74496;Laerm;62979;55.720;37.606;2023-06-04T06:00:22;54.90;45.44;64.91;;
74496;Laerm;62979;55.720;37.606;2023-06-04T06:02:50;51.49;46.52;62.99;;
74496;Laerm;62979;55.720;37.606;2023-06-04T06:05:18;53.55;44.27;62.76;;
74496;Laerm;62979;55.720;37.606;2023-06-04T06:07:46;53.07;45.75;62.10;;
74496;Laerm;62979;55.720;37.606;2023-06-04T06:10:15;53.55;46.36;62.62;;
74496;Laerm;62979;55.720;37.606;2023-06-04T06:12:42;54.08;46.27;77.29;;
74496;Laerm;62979;55.720;37.606;2023-06-04T06:15:10;55.34;46.92;69.29;;
74496;Laerm;62979;55.720;37.606;2023-06-04T06:17:38;53.49;48.64;60.63;;
74496;Laerm;62979;55.720;37.606;2023-06-04T06:20:06;49.62;45.72;62.64;;
74496;Laerm;62979;55.720;37.606;2023-06-04T06:22:34;53.08;46.95;66.52;;
74496;Laerm;62979;55.720;37.606;2023-06-04T06:25:01;52.33;44.94;65.69;;
74496;Laerm;62979;55.720;37.606;2023-06-04T06:27:30;54.93;47.36;63.82;;
74496;Laerm;62979;55.720;37.606;2023-06-04T06:29:57;52.88;45.92;61.09;;
74496;Laerm;62979;55.720;37.606;2023-06-04T06:32:24;51.08;45.60;66.08;;
74496;Laerm;62979;55.720;37.606;2023-06-04T06:34:50;53.86;46.12;69.99;;
74496;Laerm;62979;55.720;37.606;2023-06-04T06:37:17;52.05;45.06;65.54;;
74496;Laerm;62979;55.720;37.606;2023-06-04T06:39:44;56.32;46.91;65.84;;
74496;Laerm;62979;55.720;37.606;2023-06-04T06:42:11;58.76;48.97;65.38;;
74496;Laerm;62979;55.720;37.606;2023-06-04T06:44:40;51.58;46.45;63.50;;
74496;Laerm;62979;55.720;37.606;2023-06-04T06:47:06;53.86;46.83;69.46;;
74496;Laerm;62979;55.720;37.606;2023-06-04T06:49:33;53.70;44.65;66.80;;
74496;Laerm;62979;55.720;37.606;2023-06-04T06:52:00;55.12;47.16;66.03;;
74496;Laerm;62979;55.720;37.606;2023-06-04T06:54:27;55.89;47.99;64.91;;
74496;Laerm;62979;55.720;37.606;2023-06-04T06:56:54;59.80;54.53;69.15;;
74496;Laerm;62979;55.720;37.606;2023-06-04T06:59:21;58.65;48.79;64.37;;
74496;Laerm;62979;55.720;37.606;2023-06-04T07:01:49;53.82;47.79;63.68;;
74496;Laerm;62979;55.720;37.606;2023-06-04T07:04:16;52.13;47.29;61.81;;
74496;Laerm;62979;55.720;37.606;2023-06-04T07:06:43;53.42;47.32;66.47;;
74496;Laerm;62979;55.720;37.606;2023-06-04T07:09:11;53.25;46.17;62.81;;
74496;Laerm;62979;55.720;37.606;2023-06-04T07:11:38;54.16;47.13;62.72;;
74496;Laerm;62979;55.720;37.606;2023-06-04T07:14:05;51.66;47.22;59.21;;
74496;Laerm;62979;55.720;37.606;2023-06-04T07:16:31;51.98;46.49;68.36;;
74496;Laerm;62979;55.720;37.606;2023-06-04T07:19:01;53.65;47.25;61.96;;
74496;Laerm;62979;55.720;37.606;2023-06-04T07:21:28;53.80;46.38;64.50;;
74496;Laerm;62979;55.720;37.606;2023-06-04T07:23:55;52.99;45.25;65.14;;
74496;Laerm;62979;55.720;37.606;2023-06-04T07:26:22;56.22;48.04;70.98;;
74496;Laerm;62979;55.720;37.606;2023-06-04T07:28:50;57.49;49.42;68.70;;
74496;Laerm;62979;55.720;37.606;2023-06-04T07:31:17;53.66;47.70;61.73;;
74496;Laerm;62979;55.720;37.606;2023-06-04T07:33:44;54.36;46.05;69.10;;
74496;Laerm;62979;55.720;37.606;2023-06-04T07:36:13;54.15;46.42;63.01;;
74496;Laerm;62979;55.720;37.606;2023-06-04T07:38:40;54.67;47.76;61.51;;
74496;Laerm;62979;55.720;37.606;2023-06-04T07:41:08;54.55;49.02;62.75;;
74496;Laerm;62979;55.720;37.606;2023-06-04T07:43:36;61.12;49.48;81.24;;
74496;Laerm;62979;55.720;37.606;2023-06-04T07:46:03;60.44;53.14;72.25;;
74496;Laerm;62979;55.720;37.606;2023-06-04T07:48:30;58.48;50.42;68.28;;
74496;Laerm;62979;55.720;37.606;2023-06-04T07:50:58;59.04;47.21;80.06;;
74496;Laerm;62979;55.720;37.606;2023-06-04T07:53:27;54.12;47.37;62.77;;
74496;Laerm;62979;55.720;37.606;2023-06-04T07:55:54;53.77;48.53;67.23;;
74496;Laerm;62979;55.720;37.606;2023-06-04T07:58:22;54.41;46.33;71.22;;
74496;Laerm;62979;55.720;37.606;2023-06-04T08:00:49;57.34;49.09;75.48;;
74496;Laerm;62979;55.720;37.606;2023-06-04T08:03:16;56.98;47.63;72.06;;
74496;Laerm;62979;55.720;37.606;2023-06-04T08:05:43;52.96;47.06;64.68;;
74496;Laerm;62979;55.720;37.606;2023-06-04T08:08:10;52.80;46.18;65.45;;
74496;Laerm;62979;55.720;37.606;2023-06-04T08:10:39;53.88;46.17;62.93;;
74496;Laerm;62979;55.720;37.606;2023-06-04T08:13:06;63.87;50.21;83.61;;
74496;Laerm;62979;55.720;37.606;2023-06-04T08:15:34;53.40;48.13;60.33;;
74496;Laerm;62979;55.720;37.606;2023-06-04T08:18:01;55.19;48.13;65.05;;
74496;Laerm;62979;55.720;37.606;2023-06-04T08:20:28;55.96;48.63;78.43;;
74496;Laerm;62979;55.720;37.606;2023-06-04T08:22:55;54.58;48.35;72.53;;
74496;Laerm;62979;55.720;37.606;2023-06-04T08:25:21;55.27;49.94;64.39;;
74496;Laerm;62979;55.720;37.606;2023-06-04T08:27:50;54.16;48.27;69.38;;
74496;Laerm;62979;55.720;37.606;2023-06-04T08:30:17;55.58;48.76;67.58;;
74496;Laerm;62979;55.720;37.606;2023-06-04T08:32:43;54.71;48.26;66.67;;
74496;Laerm;62979;55.720;37.606;2023-06-04T08:35:10;54.15;46.65;65.96;;
74496;Laerm;62979;55.720;37.606;2023-06-04T08:37:37;54.83;48.74;68.11;;
74496;Laerm;62979;55.720;37.606;2023-06-04T08:40:06;53.48;47.85;64.15;;
74496;Laerm;62979;55.720;37.606;2023-06-04T08:42:41;55.68;48.30;63.88;;
74496;Laerm;62979;55.720;37.606;2023-06-04T08:45:11;56.83;49.30;76.81;;
74496;Laerm;62979;55.720;37.606;2023-06-04T08:47:43;56.89;50.11;68.20;;
74496;Laerm;62979;55.720;37.606;2023-06-04T08:50:12;56.67;50.14;74.90;;
74496;Laerm;62979;55.720;37.606;2023-06-04T08:52:39;56.80;50.48;68.12;;
74496;Laerm;62979;55.720;37.606;2023-06-04T08:55:08;54.39;46.97;65.30;;
74496;Laerm;62979;55.720;37.606;2023-06-04T08:57:39;54.50;48.20;71.57;;
74496;Laerm;62979;55.720;37.606;2023-06-04T09:00:07;56.22;49.76;65.73;;
74496;Laerm;62979;55.720;37.606;2023-06-04T09:02:37;53.56;47.03;60.52;;
74496;Laerm;62979;55.720;37.606;2023-06-04T09:05:06;53.57;47.50;60.74;;
74496;Laerm;62979;55.720;37.606;2023-06-04T09:07:36;56.90;52.29;62.69;;
74496;Laerm;62979;55.720;37.606;2023-06-04T09:10:06;55.83;50.20;69.49;;
74496;Laerm;62979;55.720;37.606;2023-06-04T09:12:37;57.48;48.59;77.40;;
74496;Laerm;62979;55.720;37.606;2023-06-04T09:15:08;61.15;56.70;67.89;;
74496;Laerm;62979;55.720;37.606;2023-06-04T09:17:37;61.15;55.27;68.94;;
74496;Laerm;62979;55.720;37.606;2023-06-04T09:20:05;59.90;51.53;66.30;;
74496;Laerm;62979;55.720;37.606;2023-06-04T09:22:36;58.22;50.99;68.55;;
74496;Laerm;62979;55.720;37.606;2023-06-04T09:25:06;58.55;52.84;74.28;;
74496;Laerm;62979;55.720;37.606;2023-06-04T09:27:38;59.38;50.12;70.16;;
74496;Laerm;62979;55.720;37.606;2023-06-04T09:30:07;55.27;48.18;65.02;;
74496;Laerm;62979;55.720;37.606;2023-06-04T09:32:36;54.47;47.36;66.25;;
74496;Laerm;62979;55.720;37.606;2023-06-04T09:35:11;55.08;48.52;69.27;;
74496;Laerm;62979;55.720;37.606;2023-06-04T09:37:39;55.40;50.06;65.38;;
74496;Laerm;62979;55.720;37.606;2023-06-04T09:40:08;58.42;50.08;67.60;;
74496;Laerm;62979;55.720;37.606;2023-06-04T09:42:42;55.95;49.68;66.74;;
74496;Laerm;62979;55.720;37.606;2023-06-04T09:45:11;56.41;51.06;65.77;;
74496;Laerm;62979;55.720;37.606;2023-06-04T09:47:43;55.30;50.26;63.27;;
74496;Laerm;62979;55.720;37.606;2023-06-04T09:50:11;56.75;50.25;70.51;;
74496;Laerm;62979;55.720;37.606;2023-06-04T09:52:38;58.39;49.89;77.16;;
74496;Laerm;62979;55.720;37.606;2023-06-04T09:55:15;56.12;48.66;73.10;;
74496;Laerm;62979;55.720;37.606;2023-06-04T09:57:46;55.09;49.66;67.30;;
74496;Laerm;62979;55.720;37.606;2023-06-04T10:00:17;56.85;49.04;68.31;;
74496;Laerm;62979;55.720;37.606;2023-06-04T10:02:46;58.07;47.65;77.99;;
74496;Laerm;62979;55.720;37.606;2023-06-04T10:05:15;57.62;48.25;69.85;;
74496;Laerm;62979;55.720;37.606;2023-06-04T10:07:44;55.35;49.23;65.22;;
74496;Laerm;62979;55.720;37.606;2023-06-04T10:10:17;57.03;45.85;78.20;;
74496;Laerm;62979;55.720;37.606;2023-06-04T10:12:50;56.41;50.47;67.37;;
74496;Laerm;62979;55.720;37.606;2023-06-04T10:15:21;56.46;50.85;72.55;;
74496;Laerm;62979;55.720;37.606;2023-06-04T10:17:51;55.41;50.28;70.06;;
74496;Laerm;62979;55.720;37.606;2023-06-04T10:20:20;62.68;49.67;85.64;;
74496;Laerm;62979;55.720;37.606;2023-06-04T10:22:49;57.11;49.35;76.91;;
74496;Laerm;62979;55.720;37.606;2023-06-04T10:25:17;56.28;47.14;75.28;;
74496;Laerm;62979;55.720;37.606;2023-06-04T10:27:46;54.36;45.66;65.69;;
74496;Laerm;62979;55.720;37.606;2023-06-04T10:30:13;57.23;47.68;67.37;;
74496;Laerm;62979;55.720;37.606;2023-06-04T10:32:40;55.45;48.80;66.62;;
74496;Laerm;62979;55.720;37.606;2023-06-04T10:35:09;55.31;47.61;63.98;;
74496;Laerm;62979;55.720;37.606;2023-06-04T10:37:37;54.89;48.13;68.25;;
74496;Laerm;62979;55.720;37.606;2023-06-04T10:40:06;55.62;47.62;64.98;;
74496;Laerm;62979;55.720;37.606;2023-06-04T10:42:40;57.10;50.06;64.73;;
74496;Laerm;62979;55.720;37.606;2023-06-04T10:45:09;57.44;49.94;71.67;;
74496;Laerm;62979;55.720;37.606;2023-06-04T10:47:37;57.40;50.88;77.06;;
74496;Laerm;62979;55.720;37.606;2023-06-04T10:50:13;55.39;49.01;64.37;;
74496;Laerm;62979;55.720;37.606;2023-06-04T10:52:53;57.00;49.43;72.38;;
74496;Laerm;62979;55.720;37.606;2023-06-04T10:55:20;55.68;48.20;68.90;;
74496;Laerm;62979;55.720;37.606;2023-06-04T10:57:54;56.45;48.87;75.66;;
74496;Laerm;62979;55.720;37.606;2023-06-04T11:00:22;55.18;48.72;64.53;;
74496;Laerm;62979;55.720;37.606;2023-06-04T11:02:54;54.00;48.77;62.47;;
74496;Laerm;62979;55.720;37.606;2023-06-04T11:05:34;57.88;48.54;74.36;;
74496;Laerm;62979;55.720;37.606;2023-06-04T11:08:03;59.66;47.74;73.81;;
74496;Laerm;62979;55.720;37.606;2023-06-04T11:10:33;54.88;49.41;67.58;;
74496;Laerm;62979;55.720;37.606;2023-06-04T11:13:02;54.22;48.18;71.91;;
74496;Laerm;62979;55.720;37.606;2023-06-04T11:15:38;55.66;47.22;64.31;;
74496;Laerm;62979;55.720;37.606;2023-06-04T11:18:05;52.28;45.94;59.90;;
74496;Laerm;62979;55.720;37.606;2023-06-04T11:20:34;54.25;47.76;62.51;;
74496;Laerm;62979;55.720;37.606;2023-06-04T11:23:01;58.09;50.40;65.66;;
74496;Laerm;62979;55.720;37.606;2023-06-04T11:25:30;57.07;47.64;75.08;;
74496;Laerm;62979;55.720;37.606;2023-06-04T11:27:59;58.56;50.38;70.52;;
74496;Laerm;62979;55.720;37.606;2023-06-04T11:30:27;55.93;50.22;72.59;;
74496;Laerm;62979;55.720;37.606;2023-06-04T11:33:02;55.93;49.24;73.24;;
74496;Laerm;62979;55.720;37.606;2023-06-04T11:35:30;55.32;50.27;66.46;;
74496;Laerm;62979;55.720;37.606;2023-06-04T11:37:59;56.98;50.22;63.87;;
74496;Laerm;62979;55.720;37.606;2023-06-04T11:40:26;55.96;49.78;64.38;;
74496;Laerm;62979;55.720;37.606;2023-06-04T11:42:54;56.36;50.88;65.21;;
74496;Laerm;62979;55.720;37.606;2023-06-04T11:45:22;55.95;48.93;63.69;;
74496;Laerm;62979;55.720;37.606;2023-06-04T11:47:54;54.92;48.12;65.60;;
74496;Laerm;62979;55.720;37.606;2023-06-04T11:50:22;55.02;47.96;66.12;;
74496;Laerm;62979;55.720;37.606;2023-06-04T11:52:52;57.31;49.52;66.55;;
74496;Laerm;62979;55.720;37.606;2023-06-04T11:55:21;53.85;46.43;61.02;;
74496;Laerm;62979;55.720;37.606;2023-06-04T11:57:49;57.54;46.72;77.88;;
74496;Laerm;62979;55.720;37.606;2023-06-04T12:00:17;55.53;48.64;63.82;;
74496;Laerm;62979;55.720;37.606;2023-06-04T12:02:51;58.87;50.12;71.85;;
74496;Laerm;62979;55.720;37.606;2023-06-04T12:05:21;55.57;48.97;63.05;;
74496;Laerm;62979;55.720;37.606;2023-06-04T12:07:50;53.82;48.41;60.88;;
74496;Laerm;62979;55.720;37.606;2023-06-04T12:10:17;54.67;48.00;72.63;;
74496;Laerm;62979;55.720;37.606;2023-06-04T12:12:46;57.01;48.06;70.82;;
74496;Laerm;62979;55.720;37.606;2023-06-04T12:15:21;56.15;49.69;65.99;;
74496;Laerm;62979;55.720;37.606;2023-06-04T12:17:51;58.41;49.95;73.00;;
74496;Laerm;62979;55.720;37.606;2023-06-04T12:20:18;56.79;49.93;71.40;;
74496;Laerm;62979;55.720;37.606;2023-06-04T12:22:45;54.77;49.54;62.18;;
74496;Laerm;62979;55.720;37.606;2023-06-04T12:25:24;57.83;50.01;69.02;;
74496;Laerm;62979;55.720;37.606;2023-06-04T12:27:54;56.98;50.11;65.82;;
74496;Laerm;62979;55.720;37.606;2023-06-04T12:30:22;56.17;49.81;67.05;;
74496;Laerm;62979;55.720;37.606;2023-06-04T12:32:49;54.90;49.43;71.19;;
74496;Laerm;62979;55.720;37.606;2023-06-04T12:35:17;55.50;49.78;66.43;;
74496;Laerm;62979;55.720;37.606;2023-06-04T12:37:44;56.18;47.27;67.47;;
74496;Laerm;62979;55.720;37.606;2023-06-04T12:40:11;55.05;49.97;63.64;;
74496;Laerm;62979;55.720;37.606;2023-06-04T12:42:39;55.74;49.17;62.16;;
74496;Laerm;62979;55.720;37.606;2023-06-04T12:45:10;56.05;48.84;66.15;;
74496;Laerm;62979;55.720;37.606;2023-06-04T12:47:39;55.43;49.80;67.27;;
74496;Laerm;62979;55.720;37.606;2023-06-04T12:50:08;54.71;49.13;73.04;;
74496;Laerm;62979;55.720;37.606;2023-06-04T12:52:35;54.20;49.05;62.05;;
74496;Laerm;62979;55.720;37.606;2023-06-04T12:55:03;56.55;50.99;67.36;;
74496;Laerm;62979;55.720;37.606;2023-06-04T12:57:30;55.13;50.63;62.12;;
74496;Laerm;62979;55.720;37.606;2023-06-04T12:59:57;61.09;50.37;73.73;;
74496;Laerm;62979;55.720;37.606;2023-06-04T13:02:25;56.05;48.44;65.85;;
74496;Laerm;62979;55.720;37.606;2023-06-04T13:04:52;55.38;50.62;62.46;;
74496;Laerm;62979;55.720;37.606;2023-06-04T13:07:21;57.88;51.15;67.54;;
74496;Laerm;62979;55.720;37.606;2023-06-04T13:09:48;55.58;48.06;64.89;;
74496;Laerm;62979;55.720;37.606;2023-06-04T13:12:15;56.44;49.54;74.12;;
74496;Laerm;62979;55.720;37.606;2023-06-04T13:14:42;59.76;51.42;75.87;;
74496;Laerm;62979;55.720;37.606;2023-06-04T13:17:09;55.90;51.00;74.49;;
74496;Laerm;62979;55.720;37.606;2023-06-04T13:19:37;56.66;50.21;75.98;;
74496;Laerm;62979;55.720;37.606;2023-06-04T13:22:04;55.67;48.96;67.67;;
74496;Laerm;62979;55.720;37.606;2023-06-04T13:24:31;57.75;49.91;70.84;;
74496;Laerm;62979;55.720;37.606;2023-06-04T13:26:58;55.04;49.25;68.64;;
74496;Laerm;62979;55.720;37.606;2023-06-04T13:29:25;55.29;48.71;81.18;;
74496;Laerm;62979;55.720;37.606;2023-06-04T13:31:51;64.81;50.02;90.98;;
74496;Laerm;62979;55.720;37.606;2023-06-04T13:34:20;55.54;48.87;69.24;;
74496;Laerm;62979;55.720;37.606;2023-06-04T13:36:48;55.65;48.56;65.81;;
74496;Laerm;62979;55.720;37.606;2023-06-04T13:39:15;59.44;50.67;65.58;;